createdAt,value
2022-11-05T00:00:39.628Z,70.41
2022-11-05T00:03:30.371Z,70.77
2022-11-05T00:06:16.931Z,70.70
2022-11-05T00:09:04.157Z,70.93
2022-11-05T00:12:01.616Z,70.99
2022-11-05T00:15:05.324Z,71.34
2022-11-05T00:17:33.906Z,71.50
2022-11-05T00:20:02.085Z,71.18
2022-11-05T00:22:48.791Z,71.08
2022-11-05T00:25:17.973Z,71.37
2022-11-05T00:27:51.077Z,71.58
2022-11-05T00:30:22.321Z,71.56
2022-11-05T00:32:52.133Z,71.47
2022-11-05T00:35:22.460Z,71.57
2022-11-05T00:37:53.489Z,71.36
2022-11-05T00:40:21.571Z,71.66
2022-11-05T00:43:08.607Z,71.72
2022-11-05T00:45:38.090Z,72.04
2022-11-05T00:48:26.847Z,71.85
2022-11-05T00:50:54.997Z,72.10
2022-11-05T00:53:23.090Z,72.04
2022-11-05T00:55:51.264Z,72.21
2022-11-05T00:58:21.796Z,72.11
2022-11-05T01:00:58.269Z,72.15
2022-11-05T01:03:32.477Z,72.17
2022-11-05T01:06:08.333Z,72.37
2022-11-05T01:08:36.916Z,72.37
2022-11-05T01:11:49.225Z,72.40
2022-11-05T01:14:17.396Z,72.44
2022-11-05T01:16:45.745Z,72.40
2022-11-05T01:19:14.052Z,72.54
2022-11-05T01:21:42.079Z,72.38
2022-11-05T01:24:11.036Z,72.40
2022-11-05T01:26:39.046Z,72.61
2022-11-05T01:29:07.135Z,72.76
2022-11-05T01:31:35.431Z,72.55
2022-11-05T01:34:03.503Z,72.29
2022-11-05T01:36:32.087Z,72.48
2022-11-05T01:39:00.173Z,72.49
2022-11-05T01:41:29.662Z,72.61
2022-11-05T01:43:59.947Z,72.11
2022-11-05T01:46:33.997Z,72.53
2022-11-05T01:49:33.513Z,72.37
2022-11-05T01:52:04.549Z,72.49
2022-11-05T01:54:33.378Z,72.46
2022-11-05T01:57:06.526Z,72.56
2022-11-05T01:59:43.312Z,72.72
2022-11-05T02:02:11.772Z,72.17
2022-11-05T02:04:47.635Z,72.04
2022-11-05T02:07:17.524Z,72.48
2022-11-05T02:09:54.224Z,72.48
2022-11-05T02:12:23.320Z,72.48
2022-11-05T02:14:51.390Z,72.48
2022-11-05T02:17:34.823Z,72.47
2022-11-05T02:20:13.235Z,72.63
2022-11-05T02:23:02.404Z,72.51
2022-11-05T02:25:54.742Z,72.19
2022-11-05T02:29:04.085Z,72.30
2022-11-05T02:31:50.175Z,72.48
2022-11-05T02:34:47.430Z,72.78
2022-11-05T02:37:36.391Z,72.86
2022-11-05T02:40:34.363Z,72.86
2022-11-05T02:43:24.455Z,72.96
2022-11-05T02:46:01.536Z,72.72
2022-11-05T02:48:36.980Z,72.74
2022-11-05T02:51:47.447Z,72.80
2022-11-05T02:54:44.699Z,73.11
2022-11-05T02:57:12.774Z,73.08
2022-11-05T02:59:40.948Z,73.04
2022-11-05T03:02:09.412Z,73.11
2022-11-05T03:04:37.803Z,72.99
2022-11-05T03:07:24.203Z,73.07
2022-11-05T03:10:17.875Z,73.04
2022-11-05T03:13:23.322Z,73.28
2022-11-05T03:16:02.864Z,73.46
2022-11-05T03:18:42.548Z,72.99
2022-11-05T03:21:51.104Z,72.96
2022-11-05T03:24:31.897Z,73.01
2022-11-05T03:27:09.900Z,72.85
2022-11-05T03:29:47.500Z,73.17
2022-11-05T03:32:18.332Z,73.33
2022-11-05T03:34:54.083Z,73.23
2022-11-05T03:37:24.509Z,73.30
2022-11-05T03:39:56.682Z,73.34
2022-11-05T03:42:30.278Z,73.21
2022-11-05T03:45:02.344Z,73.20
2022-11-05T03:47:36.047Z,72.96
2022-11-05T03:50:14.640Z,73.18
2022-11-05T03:52:54.077Z,73.50
2022-11-05T03:55:33.027Z,73.21
2022-11-05T03:58:04.375Z,73.40
2022-11-05T04:00:33.249Z,73.75
2022-11-05T04:03:01.380Z,73.91
2022-11-05T04:05:29.717Z,73.74
2022-11-05T04:08:16.424Z,73.85
2022-11-05T04:11:03.136Z,73.93
2022-11-05T04:13:32.229Z,73.76
2022-11-05T04:16:18.835Z,73.93
2022-11-05T04:18:47.137Z,74.08
2022-11-05T04:21:33.715Z,74.02
2022-11-05T04:24:10.907Z,74.13
2022-11-05T04:26:41.436Z,74.00
2022-11-05T04:29:28.960Z,74.28
2022-11-05T04:31:57.339Z,74.19
2022-11-05T04:34:25.509Z,74.28
2022-11-05T04:36:53.990Z,74.46
2022-11-05T04:39:22.174Z,74.46
2022-11-05T04:41:50.546Z,74.43
2022-11-05T04:44:18.716Z,74.19
2022-11-05T04:46:46.788Z,74.02
2022-11-05T04:49:14.860Z,74.08
2022-11-05T04:51:43.239Z,74.14
2022-11-05T04:54:11.515Z,74.08
2022-11-05T04:56:39.584Z,74.07
2022-11-05T04:59:07.759Z,74.13
2022-11-05T05:01:36.069Z,74.07
2022-11-05T05:04:04.718Z,73.98
2022-11-05T05:06:32.894Z,73.90
2022-11-05T05:09:00.965Z,73.97
2022-11-05T05:11:29.045Z,74.20
2022-11-05T05:13:58.042Z,74.15
2022-11-05T05:16:27.842Z,74.31
2022-11-05T05:18:56.120Z,74.37
2022-11-05T05:21:39.654Z,74.28
2022-11-05T05:24:13.459Z,74.64
2022-11-05T05:26:43.987Z,74.96
2022-11-05T05:29:13.082Z,75.02
2022-11-05T05:31:41.460Z,75.13
2022-11-05T05:34:14.137Z,75.12
2022-11-05T05:36:42.518Z,75.09
2022-11-05T05:39:13.763Z,74.84
2022-11-05T05:41:41.837Z,74.90
2022-11-05T05:44:09.911Z,74.97
2022-11-05T05:46:37.978Z,75.14
2022-11-05T05:49:11.189Z,74.93
2022-11-05T05:51:40.470Z,74.92
2022-11-05T05:54:08.848Z,74.88
2022-11-05T05:56:36.920Z,74.75
2022-11-05T05:59:06.458Z,74.78
2022-11-05T06:01:34.658Z,74.86
2022-11-05T06:04:03.592Z,74.84
2022-11-05T06:06:31.764Z,74.80
2022-11-05T06:09:00.143Z,74.88
2022-11-05T06:11:28.422Z,74.78
2022-11-05T06:13:56.491Z,74.67
2022-11-05T06:16:24.672Z,74.93
2022-11-05T06:18:52.979Z,74.97
2022-11-05T06:21:21.319Z,74.94
2022-11-05T06:23:50.005Z,75.14
2022-11-05T06:26:19.215Z,75.22
2022-11-05T06:28:47.551Z,74.94
2022-11-05T06:31:15.860Z,75.10
2022-11-05T06:33:43.932Z,75.01
2022-11-05T06:36:15.603Z,74.98
2022-11-05T06:38:44.270Z,75.03
2022-11-05T06:41:12.546Z,75.14
2022-11-05T06:43:40.722Z,75.10
2022-11-05T06:46:10.837Z,75.16
2022-11-05T06:48:39.962Z,75.13
2022-11-05T06:51:08.619Z,75.02
2022-11-05T06:53:37.333Z,75.20
2022-11-05T06:56:07.320Z,75.27
2022-11-05T06:58:35.597Z,75.24
2022-11-05T07:01:05.765Z,75.26
2022-11-05T07:03:34.505Z,75.42
2022-11-05T07:06:04.735Z,75.33
2022-11-05T07:08:35.154Z,75.22
2022-11-05T07:11:04.293Z,75.54
2022-11-05T07:13:33.860Z,75.59
2022-11-05T07:16:01.929Z,75.75
2022-11-05T07:18:29.998Z,75.69
2022-11-05T07:21:00.414Z,75.65
2022-11-05T07:23:28.600Z,75.62
2022-11-05T07:25:56.670Z,75.71
2022-11-05T07:28:24.947Z,75.88
2022-11-05T07:30:54.248Z,75.90
2022-11-05T07:33:22.321Z,75.95
2022-11-05T07:35:50.492Z,76.23
2022-11-05T07:38:19.586Z,76.23
2022-11-05T07:40:47.657Z,76.27
2022-11-05T07:43:16.255Z,76.47
2022-11-05T07:45:47.161Z,76.71
2022-11-05T07:48:15.251Z,76.92
2022-11-05T07:50:43.345Z,77.00
2022-11-05T07:53:14.721Z,77.06
2022-11-05T07:55:46.033Z,77.06
2022-11-05T07:58:15.327Z,77.27
2022-11-05T08:00:44.437Z,77.43
2022-11-05T08:03:15.032Z,77.67
2022-11-05T08:05:46.497Z,77.72
2022-11-05T08:08:17.749Z,77.63
2022-11-05T08:10:46.533Z,77.52
2022-11-05T08:13:15.618Z,77.58
2022-11-05T08:15:44.618Z,77.70
2022-11-05T08:18:15.377Z,77.67
2022-11-05T08:20:45.281Z,77.67
2022-11-05T08:23:13.565Z,77.80
2022-11-05T08:25:43.768Z,77.53
2022-11-05T08:28:13.788Z,77.64
2022-11-05T08:30:41.966Z,77.78
2022-11-05T08:33:12.733Z,77.88
2022-11-05T08:35:41.682Z,77.83
2022-11-05T08:38:16.512Z,77.77
2022-11-05T08:40:46.632Z,77.65
2022-11-05T08:43:15.053Z,77.70
2022-11-05T08:45:43.388Z,77.90
2022-11-05T08:48:15.211Z,77.98
2022-11-05T08:50:45.881Z,77.97
2022-11-05T08:53:14.428Z,78.07
2022-11-05T08:55:44.202Z,78.03
2022-11-05T08:58:15.535Z,77.99
2022-11-05T09:00:46.720Z,78.27
2022-11-05T09:03:15.504Z,78.23
2022-11-05T09:05:44.039Z,78.36
2022-11-05T09:08:18.050Z,78.39
2022-11-05T09:10:47.767Z,78.28
2022-11-05T09:13:19.892Z,78.30
2022-11-05T09:15:50.080Z,78.56
2022-11-05T09:18:19.853Z,78.69
2022-11-05T09:20:48.132Z,78.82
2022-11-05T09:23:16.408Z,78.83
2022-11-05T09:25:45.258Z,78.70
2022-11-05T09:28:19.088Z,78.91
2022-11-05T09:30:52.706Z,79.17
2022-11-05T09:33:24.156Z,79.16
2022-11-05T09:35:53.785Z,79.46
2022-11-05T09:38:22.242Z,79.24
2022-11-05T09:41:12.534Z,79.29
2022-11-05T09:44:16.038Z,79.57
2022-11-05T09:46:49.639Z,80.03
2022-11-05T09:49:35.439Z,80.23
2022-11-05T09:52:03.806Z,80.27
2022-11-05T09:54:32.386Z,79.98
2022-11-05T09:57:02.407Z,79.99
2022-11-05T09:59:42.045Z,80.30
2022-11-05T10:02:17.988Z,80.59
2022-11-05T10:04:50.327Z,80.56
2022-11-05T10:07:23.055Z,80.56
2022-11-05T10:10:03.619Z,80.48
2022-11-05T10:12:45.820Z,80.50
2022-11-05T10:15:18.600Z,80.56
2022-11-05T10:17:57.017Z,80.76
2022-11-05T10:20:35.428Z,80.66
2022-11-05T10:23:12.887Z,80.67
2022-11-05T10:25:47.751Z,80.43
2022-11-05T10:28:22.069Z,80.57
2022-11-05T10:30:55.977Z,80.64
2022-11-05T10:33:42.992Z,80.66
2022-11-05T10:36:35.027Z,80.96
2022-11-05T10:39:10.162Z,80.80
2022-11-05T10:41:44.175Z,80.92
2022-11-05T10:44:27.402Z,80.98
2022-11-05T10:47:23.530Z,80.84
2022-11-05T10:49:58.981Z,80.95
2022-11-05T10:52:30.936Z,80.96
2022-11-05T10:55:02.817Z,80.85
2022-11-05T10:57:33.530Z,80.90
2022-11-05T11:00:22.043Z,80.92
2022-11-05T11:03:00.522Z,80.63
2022-11-05T11:05:46.999Z,80.60
2022-11-05T11:08:15.070Z,80.39
2022-11-05T11:11:05.161Z,80.67
2022-11-05T11:14:04.769Z,80.60
2022-11-05T11:16:40.091Z,80.75
2022-11-05T11:19:26.614Z,80.42
2022-11-05T11:22:13.833Z,80.58
2022-11-05T11:24:45.386Z,80.60
2022-11-05T11:27:21.139Z,80.63
2022-11-05T11:29:58.429Z,80.76
2022-11-05T11:32:33.729Z,80.77
2022-11-05T11:35:02.974Z,80.66
2022-11-05T11:37:42.130Z,80.70
2022-11-05T11:40:20.818Z,80.90
2022-11-05T11:42:55.853Z,80.97
2022-11-05T11:45:47.276Z,81.04
2022-11-05T11:48:46.030Z,80.80
2022-11-05T11:51:20.277Z,80.83
2022-11-05T11:53:49.781Z,81.01
2022-11-05T11:56:21.943Z,81.02
2022-11-05T11:58:57.188Z,80.99
2022-11-05T12:01:50.146Z,81.12
2022-11-05T12:04:36.648Z,80.92
2022-11-05T12:07:22.946Z,80.98
2022-11-05T12:10:13.347Z,81.16
2022-11-05T12:13:15.513Z,81.33
2022-11-05T12:16:02.424Z,81.25
2022-11-05T12:19:09.567Z,81.08
2022-11-05T12:22:09.973Z,81.20
2022-11-05T12:25:06.376Z,81.35
2022-11-05T12:28:03.427Z,81.41
2022-11-05T12:31:03.038Z,81.43
2022-11-05T12:33:52.817Z,81.33
2022-11-05T12:36:35.941Z,81.57
2022-11-05T12:39:14.867Z,81.60
2022-11-05T12:42:02.877Z,81.62
2022-11-05T12:44:34.461Z,81.57
2022-11-05T12:47:02.940Z,81.36
2022-11-05T12:50:00.431Z,81.41
2022-11-05T12:52:43.730Z,81.53
2022-11-05T12:55:18.470Z,81.78
2022-11-05T12:57:49.389Z,81.81
2022-11-05T13:00:21.358Z,81.57
2022-11-05T13:03:10.980Z,81.60
2022-11-05T13:05:43.715Z,81.99
2022-11-05T13:08:53.602Z,82.17
2022-11-05T13:11:28.577Z,81.90
2022-11-05T13:14:11.726Z,82.00
2022-11-05T13:16:45.838Z,81.95
2022-11-05T13:19:28.860Z,82.14
2022-11-05T13:22:12.393Z,82.25
2022-11-05T13:24:56.442Z,82.07
2022-11-05T13:27:49.194Z,81.98
2022-11-05T13:30:21.840Z,82.22
2022-11-05T13:33:04.587Z,82.29
2022-11-05T13:35:42.146Z,82.40
2022-11-05T13:38:39.679Z,82.40
2022-11-05T13:41:29.827Z,82.38
2022-11-05T13:44:27.390Z,82.46
2022-11-05T13:47:27.514Z,82.73
2022-11-05T13:50:07.361Z,82.70
2022-11-05T13:52:59.395Z,82.91
2022-11-05T13:55:42.722Z,83.10
2022-11-05T13:58:48.582Z,82.87
2022-11-05T14:01:32.129Z,82.98
2022-11-05T14:04:00.801Z,83.17
2022-11-05T14:06:32.147Z,83.22
2022-11-05T14:09:10.002Z,83.12
2022-11-05T14:11:43.140Z,83.07
2022-11-05T14:14:21.860Z,82.89
2022-11-05T14:17:09.591Z,83.02
2022-11-05T14:20:02.925Z,83.17
2022-11-05T14:22:31.337Z,83.00
2022-11-05T14:25:01.456Z,83.01
2022-11-05T14:27:52.468Z,83.25
2022-11-05T14:30:46.547Z,83.15
2022-11-05T14:33:32.535Z,83.38
2022-11-05T14:36:23.549Z,83.31
2022-11-05T14:38:56.861Z,83.23
2022-11-05T14:41:28.503Z,83.36
2022-11-05T14:44:02.402Z,83.46
2022-11-05T14:46:47.167Z,83.44
2022-11-05T14:49:25.987Z,83.28
2022-11-05T14:52:00.993Z,83.27
2022-11-05T14:54:40.256Z,83.22
2022-11-05T14:57:13.630Z,83.49
2022-11-05T15:00:02.469Z,83.53
2022-11-05T15:02:37.877Z,83.27
2022-11-05T15:05:31.032Z,83.13
2022-11-05T15:08:00.430Z,83.36
2022-11-05T15:10:37.598Z,83.38
2022-11-05T15:13:06.694Z,83.33
2022-11-05T15:15:44.334Z,83.32
2022-11-05T15:18:29.869Z,83.00
2022-11-05T15:21:02.141Z,83.08
2022-11-05T15:23:38.818Z,83.19
2022-11-05T15:26:15.793Z,83.21
2022-11-05T15:28:47.885Z,83.26
2022-11-05T15:31:16.237Z,83.16
2022-11-05T15:33:49.325Z,83.11
2022-11-05T15:36:25.833Z,83.14
2022-11-05T15:39:22.975Z,83.35
2022-11-05T15:41:43.340Z,83.39
2022-11-05T15:44:48.273Z,83.17
2022-11-05T15:47:21.055Z,83.17
2022-11-05T15:49:56.605Z,83.32
2022-11-05T15:52:42.594Z,83.26
2022-11-05T15:55:19.007Z,83.36
2022-11-05T15:57:51.517Z,83.10
2022-11-05T16:00:23.891Z,83.26
2022-11-05T16:03:01.095Z,83.33
2022-11-05T16:05:42.175Z,83.43
2022-11-05T16:08:28.263Z,83.42
2022-11-05T16:10:59.743Z,83.39
2022-11-05T16:13:34.748Z,83.47
2022-11-05T16:16:06.916Z,83.45
2022-11-05T16:18:40.004Z,83.43
2022-11-05T16:21:16.502Z,83.51
2022-11-05T16:23:46.871Z,83.36
2022-11-05T16:29:32.176Z,83.48
2022-11-05T16:32:04.674Z,83.36
2022-11-05T16:34:42.980Z,83.57
2022-11-05T16:37:16.582Z,83.17
2022-11-05T16:39:45.675Z,83.17
2022-11-05T16:42:24.809Z,83.26
2022-11-05T16:44:55.350Z,83.25
2022-11-05T16:47:26.278Z,83.28
2022-11-05T16:49:54.917Z,83.01
2022-11-05T16:52:23.735Z,83.09
2022-11-05T16:54:52.949Z,83.19
2022-11-05T16:57:30.744Z,83.29
2022-11-05T17:00:00.973Z,83.31
2022-11-05T17:02:29.582Z,83.31
2022-11-05T17:04:58.341Z,83.11
2022-11-05T17:07:26.614Z,83.19
2022-11-05T17:09:56.120Z,83.23
2022-11-05T17:12:24.394Z,83.22
2022-11-05T17:14:52.466Z,83.01
2022-11-05T17:17:20.488Z,82.89
2022-11-05T17:19:48.714Z,82.99
2022-11-05T17:22:16.783Z,82.97
2022-11-05T17:24:44.854Z,83.02
2022-11-05T17:27:13.029Z,82.99
2022-11-05T17:29:41.098Z,82.91
2022-11-05T17:32:09.172Z,82.93
2022-11-05T17:34:37.346Z,83.35
2022-11-05T17:37:05.620Z,83.40
2022-11-05T17:39:33.692Z,83.26
2022-11-05T17:42:01.764Z,83.20
2022-11-05T17:44:29.800Z,83.14
2022-11-05T17:46:57.905Z,83.17
2022-11-05T17:49:26.387Z,83.09
2022-11-05T17:51:54.562Z,83.15
2022-11-05T17:54:22.633Z,83.25
2022-11-05T17:56:50.703Z,83.27
2022-11-05T17:59:18.774Z,82.96
2022-11-05T18:01:47.051Z,83.06
2022-11-05T18:04:15.634Z,83.14
2022-11-05T18:06:43.807Z,83.32
2022-11-05T18:09:14.342Z,83.32
2022-11-05T18:11:42.714Z,83.18
2022-11-05T18:14:11.196Z,82.94
2022-11-05T18:16:39.268Z,83.15
2022-11-05T18:19:07.440Z,83.30
2022-11-05T18:21:35.614Z,83.42
2022-11-05T18:24:04.945Z,83.61
2022-11-05T18:26:33.585Z,83.44
2022-11-05T18:29:03.108Z,83.34
2022-11-05T18:31:31.280Z,83.31
2022-11-05T18:34:00.752Z,83.28
2022-11-05T18:36:31.533Z,83.59
2022-11-05T18:39:01.844Z,83.50
2022-11-05T18:41:30.724Z,83.36
2022-11-05T18:44:03.309Z,83.48
2022-11-05T18:49:21.262Z,83.68
2022-11-05T18:51:49.949Z,83.68
2022-11-05T18:54:18.028Z,83.55
2022-11-05T18:56:47.330Z,83.56
2022-11-05T19:02:09.229Z,83.74
2022-11-05T19:04:37.917Z,83.89
2022-11-05T19:07:07.529Z,83.59
2022-11-05T19:09:37.491Z,83.72
2022-11-05T19:12:07.233Z,83.81
2022-11-05T19:14:36.992Z,83.62
2022-11-05T19:17:05.683Z,83.92
2022-11-05T19:19:33.857Z,83.66
2022-11-05T19:22:02.236Z,83.35
2022-11-05T19:24:30.615Z,83.51
2022-11-05T19:27:00.870Z,83.77
2022-11-05T19:29:29.316Z,83.73
2022-11-05T19:31:57.594Z,83.53
2022-11-05T19:34:25.880Z,83.52
2022-11-05T19:36:55.425Z,83.63
2022-11-05T19:39:25.146Z,83.59
2022-11-05T19:41:56.528Z,83.63
2022-11-05T19:44:27.575Z,83.64
2022-11-05T19:46:57.869Z,83.69
2022-11-05T19:49:28.225Z,83.69
2022-11-05T19:51:56.611Z,83.49
2022-11-05T19:54:24.726Z,83.67
2022-11-05T19:56:53.155Z,83.59
2022-11-05T19:59:21.430Z,83.69
2022-11-05T20:01:49.760Z,83.57
2022-11-05T20:04:18.292Z,83.16
2022-11-05T20:06:46.462Z,83.31
2022-11-05T20:09:23.291Z,83.26
2022-11-05T20:11:54.676Z,83.64
2022-11-05T20:14:24.503Z,83.33
2022-11-05T20:16:54.114Z,83.27
2022-11-05T20:19:23.350Z,83.27
2022-11-05T20:21:52.095Z,83.28
2022-11-05T20:24:25.172Z,83.42
2022-11-05T20:26:55.396Z,83.18
2022-11-05T20:29:29.026Z,83.19
2022-11-05T20:31:58.105Z,82.92
2022-11-05T20:34:26.172Z,82.94
2022-11-05T20:36:54.245Z,83.19
2022-11-05T20:39:23.239Z,83.03
2022-11-05T20:41:53.050Z,82.91
2022-11-05T20:44:21.224Z,83.03
2022-11-05T20:46:49.403Z,82.94
2022-11-05T20:49:22.536Z,82.97
2022-11-05T20:51:54.508Z,83.05
2022-11-05T20:54:23.953Z,82.97
2022-11-05T20:56:52.437Z,82.95
2022-11-05T20:59:20.920Z,82.89
2022-11-05T21:01:50.613Z,82.60
2022-11-05T21:04:19.002Z,82.94
2022-11-05T21:06:47.289Z,82.91
2022-11-05T21:09:15.658Z,83.07
2022-11-05T21:12:02.672Z,83.00
2022-11-05T21:14:30.949Z,82.74
2022-11-05T21:16:59.328Z,82.72
2022-11-05T21:19:29.856Z,82.86
2022-11-05T21:21:57.969Z,82.80
2022-11-05T21:24:26.408Z,82.76
2022-11-05T21:26:54.689Z,82.75
2022-11-05T21:29:22.961Z,82.73
2022-11-05T21:31:51.237Z,82.87
2022-11-05T21:34:19.828Z,82.96
2022-11-05T21:36:47.993Z,82.87
2022-11-05T21:39:16.680Z,82.96
2022-11-05T21:41:45.064Z,82.81
2022-11-05T21:44:13.437Z,82.81
2022-11-05T21:46:41.918Z,82.91
2022-11-05T21:49:10.604Z,82.87
2022-11-05T21:51:57.107Z,82.83
2022-11-05T21:54:43.981Z,82.52
2022-11-05T21:57:36.003Z,82.71
2022-11-05T22:00:06.013Z,82.60
2022-11-05T22:02:34.782Z,82.82
2022-11-05T22:05:04.013Z,83.02
2022-11-05T22:07:34.994Z,82.73
2022-11-05T22:10:14.674Z,82.80
2022-11-05T22:12:46.192Z,82.35
2022-11-05T22:15:15.083Z,82.52
2022-11-05T22:17:46.865Z,82.72
2022-11-05T22:20:16.964Z,82.50
2022-11-05T22:22:47.276Z,82.38
2022-11-05T22:25:16.663Z,82.58
2022-11-05T22:27:44.961Z,82.35
2022-11-05T22:30:14.363Z,82.43
2022-11-05T22:32:44.694Z,82.62
2022-11-05T22:35:12.760Z,82.80
2022-11-05T22:37:41.036Z,82.50
2022-11-05T22:40:09.828Z,82.68
2022-11-05T22:42:38.112Z,82.57
2022-11-05T22:45:07.176Z,82.65
2022-11-05T22:47:35.470Z,82.75
2022-11-05T22:50:05.257Z,82.78
2022-11-05T22:52:33.644Z,82.85
2022-11-05T22:55:03.992Z,82.61
2022-11-05T22:57:32.448Z,82.50
2022-11-05T23:00:00.742Z,82.62
2022-11-05T23:02:28.946Z,82.81
2022-11-05T23:04:57.409Z,82.85
2022-11-05T23:07:43.899Z,82.58
2022-11-05T23:10:30.813Z,82.68
2022-11-05T23:12:58.884Z,82.55
2022-11-05T23:15:45.799Z,82.71
2022-11-05T23:18:32.813Z,82.63
2022-11-05T23:21:23.055Z,82.67
2022-11-05T23:24:06.960Z,82.57
2022-11-05T23:26:52.643Z,82.32
2022-11-05T23:29:23.879Z,82.13
2022-11-05T23:32:11.199Z,82.60
2022-11-05T23:34:40.089Z,82.52
2022-11-05T23:37:27.312Z,82.66
2022-11-05T23:39:55.691Z,82.66
2022-11-05T23:42:43.114Z,82.58
2022-11-05T23:45:30.436Z,82.59
2022-11-05T23:48:17.080Z,82.86
2022-11-05T23:50:50.032Z,82.75
2022-11-05T23:53:19.226Z,82.76
2022-11-05T23:55:48.115Z,82.59
2022-11-05T23:58:17.724Z,82.47
